Saginaw Browne, MI

6:24 AM EDT on April 27, 2017 (GMT -0400)
Saginaw County-Browne

Weather History for KHYX - April, 2013

Change the Weather History Date:

Wednesday, April 3, 2013

  Actual Average (KMBS) Record (KMBS)
Temperature  
Mean Temperature 32 °F -  
Max Temperature 42 °F 47 °F 81 °F (1999)
Min Temperature 21 °F 30 °F 20 °F (2013)
Degree Days  
Heating Degree Days 34    
Moisture  
Dew Point 16 °F    
Average Humidity 52    
Maximum Humidity 74    
Minimum Humidity 31    
Precipitation  
Precipitation 0.00 in - - ()
Sea Level Pressure  
Sea Level Pressure 30.33 in    
Wind  
Wind Speed 7 mph (WNW)    
Max Wind Speed 14 mph    
Max Gust Speed 21 mph    
Visibility 10 miles    
Events      
Averages and records for this station are not official NWS values.
T = Trace of Precipitation, MM = Missing Value Source: NWS Daily Summary

Daily Weather History Graph

Daily Weather History Graph

Search for Another Location

Airport or City:

Trip Planner

Search our weather history database for the weather conditions in past years. The results will help you decide how hot, cold, wet, or windy it might be!

Date:

Astronomy

Apr. 03, 2013 Rise Set
Actual Time 7:13 AM EDT 8:04 PM EDT
Civil Twilight 6:44 AM EDT 8:33 PM EDT
Nautical Twilight 6:09 AM EDT 9:08 PM EDT
Astronomical Twilight 5:33 AM EDT 9:44 PM EDT
Moon 3:04 AM EDT (4/3) 1:04 PM EDT (4/3)
Length of Visible Light 13h 49m
Length of Day
12h 51m
Last Quarter, 45% of the Moon is Illuminated
Apr 3
Last Quarter
Apr 10
New
Apr 18
First Quarter
Apr 25
Full
May 2
Last Quarter

Hourly Weather History & Observations

Time (EDT) Temp. Windchill Dew Point Humidity Pressure Visibility Wind Dir Wind Speed Gust Speed Precip Events Conditions
12:13 AM 28.4 °F 23.3 °F 14.0 °F 55% 30.23 in 10.0 mi WSW 4.6 mph - N/A   Clear
12:33 AM 28.4 °F 22.2 °F 14.0 °F 55% 30.23 in 10.0 mi West 5.8 mph - N/A   Clear
12:53 AM 28.4 °F 21.2 °F 15.8 °F 59% 30.23 in 10.0 mi West 6.9 mph - N/A   Clear
1:13 AM 28.4 °F 22.2 °F 15.8 °F 59% 30.23 in 10.0 mi West 5.8 mph - N/A   Clear
1:33 AM 26.6 °F 20.0 °F 15.8 °F 64% 30.23 in 10.0 mi West 5.8 mph - N/A   Clear
1:53 AM 26.6 °F 20.0 °F 15.8 °F 64% 30.24 in 10.0 mi West 5.8 mph - N/A   Clear
2:13 AM 28.4 °F 20.4 °F 17.6 °F 64% 30.24 in 10.0 mi NW 8.1 mph - N/A   Clear
2:34 AM 26.6 °F 18.2 °F 17.6 °F 69% 30.25 in 10.0 mi NW 8.1 mph - N/A   Clear
2:54 AM 26.6 °F 19.1 °F 17.6 °F 69% 30.25 in 10.0 mi NNW 6.9 mph - N/A   Clear
3:15 AM 26.6 °F 20.0 °F 17.6 °F 69% 30.25 in 10.0 mi NNW 5.8 mph - N/A   Clear
3:35 AM 26.6 °F 18.2 °F 17.6 °F 69% 30.25 in 10.0 mi North 8.1 mph - N/A   Clear
3:55 AM 26.6 °F 19.1 °F 17.6 °F 69% 30.26 in 10.0 mi NNW 6.9 mph - N/A   Clear
4:15 AM 26.6 °F 20.0 °F 15.8 °F 64% 30.26 in 10.0 mi NNW 5.8 mph - N/A   Clear
4:35 AM 24.8 °F 16.9 °F 15.8 °F 69% 30.27 in 10.0 mi NNW 6.9 mph - N/A   Clear
4:55 AM 24.8 °F 16.9 °F 14.0 °F 64% 30.27 in 10.0 mi NW 6.9 mph - N/A   Clear
5:15 AM 23.0 °F 15.8 °F 14.0 °F 68% 30.28 in 10.0 mi NW 5.8 mph - N/A   Clear
5:35 AM 23.0 °F 18.4 °F 14.0 °F 68% 30.28 in 10.0 mi WNW 3.5 mph - N/A   Clear
5:51 AM 23.0 °F 18.4 °F 15.8 °F 74% 30.29 in 10.0 mi WNW 3.5 mph - N/A   Clear
6:11 AM 23.0 °F 17.0 °F 14.0 °F 68% 30.29 in 10.0 mi WNW 4.6 mph - N/A   Clear
6:31 AM 23.0 °F 18.4 °F 14.0 °F 68% 30.30 in 10.0 mi WNW 3.5 mph - N/A   Clear
6:51 AM 23.0 °F 18.4 °F 14.0 °F 68% 30.31 in 10.0 mi WNW 3.5 mph - N/A   Clear
7:11 AM 21.2 °F 13.6 °F 14.0 °F 74% 30.31 in 10.0 mi WNW 5.8 mph - N/A   Clear
7:31 AM 23.0 °F 14.7 °F 15.8 °F 74% 30.32 in 10.0 mi West 6.9 mph - N/A   Clear
7:51 AM 24.8 °F 16.9 °F 17.6 °F 74% 30.32 in 10.0 mi West 6.9 mph - N/A   Clear
8:12 AM 26.6 °F 20.0 °F 17.6 °F 69% 30.34 in 10.0 mi West 5.8 mph - N/A   Scattered Clouds
8:32 AM 26.6 °F 16.8 °F 17.6 °F 69% 30.34 in 10.0 mi WNW 10.4 mph - N/A   Scattered Clouds
8:52 AM 28.4 °F 18.5 °F 19.4 °F 69% 30.35 in 10.0 mi NW 11.5 mph 16.1 mph N/A   Clear
9:12 AM 30.2 °F 20.8 °F 19.4 °F 64% 30.36 in 10.0 mi NNW 11.5 mph 16.1 mph N/A   Scattered Clouds
9:32 AM 30.2 °F 20.2 °F 17.6 °F 60% 30.37 in 10.0 mi NNW 12.7 mph - N/A   Scattered Clouds
9:52 AM 32.0 °F 22.1 °F 15.8 °F 51% 30.37 in 10.0 mi NNW 13.8 mph 20.7 mph N/A   Clear
10:12 AM 32.0 °F 22.5 °F 14.0 °F 48% 30.38 in 10.0 mi NNW 12.7 mph 18.4 mph N/A   Clear
10:32 AM 32.0 °F 23.0 °F 14.0 °F 48% 30.38 in 10.0 mi NNW 11.5 mph 20.7 mph N/A   Clear
10:52 AM 32.0 °F 23.6 °F 14.0 °F 48% 30.39 in 10.0 mi North 10.4 mph 20.7 mph N/A   Scattered Clouds
11:12 AM 32.0 °F 23.0 °F 14.0 °F 48% 30.39 in 10.0 mi NW 11.5 mph - N/A   Mostly Cloudy
11:32 AM 33.8 °F 24.8 °F 12.2 °F 41% 30.40 in 10.0 mi NNW 12.7 mph - N/A   Mostly Cloudy
11:52 AM 33.8 °F 24.3 °F 14.0 °F 44% 30.41 in 10.0 mi NW 13.8 mph 20.7 mph N/A   Scattered Clouds
12:13 PM 35.6 °F 28.0 °F 12.2 °F 38% 30.41 in 10.0 mi NNW 10.4 mph - N/A   Scattered Clouds
12:33 PM 33.8 °F 25.3 °F 12.2 °F 41% 30.42 in 10.0 mi North 11.5 mph 19.6 mph N/A   Scattered Clouds
12:53 PM 35.6 °F 29.2 °F 12.2 °F 38% 30.42 in 10.0 mi North 8.1 mph 15.0 mph N/A   Scattered Clouds
1:13 PM 35.6 °F 27.5 °F 12.2 °F 38% 30.42 in 10.0 mi West 11.5 mph 17.3 mph N/A   Scattered Clouds
1:33 PM 37.4 °F 30.8 °F 12.2 °F 36% 30.41 in 10.0 mi NNW 9.2 mph 16.1 mph N/A   Scattered Clouds
1:53 PM 37.4 °F 29.8 °F 14.0 °F 38% 30.40 in 10.0 mi NNW 11.5 mph 19.6 mph N/A   Scattered Clouds
2:13 PM 37.4 °F 31.4 °F 14.0 °F 38% 30.40 in 10.0 mi West 8.1 mph 16.1 mph N/A   Clear
2:33 PM 39.2 °F 31.6 °F 12.2 °F 33% 30.40 in 10.0 mi WNW 12.7 mph 18.4 mph N/A   Scattered Clouds
2:53 PM 41.0 °F 34.7 °F 14.0 °F 33% 30.39 in 10.0 mi WNW 10.4 mph - N/A   Clear
3:13 PM 41.0 °F 36.4 °F 14.0 °F 33% 30.38 in 10.0 mi West 6.9 mph - N/A   Clear
3:33 PM 41.0 °F 37.1 °F 14.0 °F 33% 30.38 in 10.0 mi West 5.8 mph 10.4 mph N/A   Clear
3:54 PM 41.0 °F 34.7 °F 14.0 °F 33% 30.38 in 10.0 mi NW 10.4 mph 18.4 mph N/A   Clear
4:14 PM 41.0 °F 35.2 °F 14.0 °F 33% 30.38 in 10.0 mi NW 9.2 mph - N/A   Clear
4:34 PM 41.0 °F 37.1 °F 14.0 °F 33% 30.37 in 10.0 mi West 5.8 mph - N/A   Clear
4:54 PM 42.8 °F 37.0 °F 14.0 °F 31% 30.37 in 10.0 mi NW 10.4 mph - N/A   Clear
5:14 PM 41.0 °F 37.1 °F 14.0 °F 33% 30.36 in 10.0 mi West 5.8 mph - N/A   Clear
5:34 PM 42.8 °F 38.6 °F 14.0 °F 31% 30.36 in 10.0 mi WNW 6.9 mph - N/A   Clear
5:54 PM 42.8 °F 38.6 °F 14.0 °F 31% 30.36 in 10.0 mi WNW 6.9 mph - N/A   Clear
6:15 PM 42.8 °F 40.1 °F 14.0 °F 31% 30.36 in 10.0 mi WNW 4.6 mph - N/A   Clear
6:35 PM 41.0 °F - 14.0 °F 33% 30.36 in 10.0 mi Calm Calm - N/A   Clear
6:55 PM 41.0 °F - 14.0 °F 33% 30.36 in 10.0 mi Calm Calm - N/A   Clear
7:15 PM 41.0 °F 37.1 °F 15.8 °F 36% 30.36 in 10.0 mi SSW 5.8 mph - N/A   Clear
7:35 PM 39.2 °F 34.2 °F 17.6 °F 42% 30.36 in 10.0 mi SSW 6.9 mph - N/A   Clear
7:55 PM 37.4 °F 32.1 °F 17.6 °F 45% 30.36 in 10.0 mi South 6.9 mph - N/A   Clear
8:15 PM 35.6 °F 29.9 °F 17.6 °F 48% 30.35 in 10.0 mi SSW 6.9 mph - N/A   Clear
8:35 PM 35.6 °F 30.7 °F 17.6 °F 48% 30.34 in 10.0 mi South 5.8 mph - N/A   Clear
8:55 PM 33.8 °F 28.6 °F 17.6 °F 52% 30.34 in 10.0 mi South 5.8 mph - N/A   Clear
9:15 PM 33.8 °F 29.6 °F 17.6 °F 52% 30.34 in 10.0 mi South 4.6 mph - N/A   Clear
9:35 PM 33.8 °F 29.6 °F 17.6 °F 52% 30.34 in 10.0 mi South 4.6 mph - N/A   Clear
9:56 PM 32.0 °F 27.5 °F 17.6 °F 55% 30.34 in 10.0 mi South 4.6 mph - N/A   Clear
10:11 PM 32.0 °F 27.5 °F 19.4 °F 60% 30.34 in 10.0 mi South 4.6 mph - N/A   Clear
10:31 PM 32.0 °F 25.6 °F 19.4 °F 60% 30.34 in 10.0 mi South 6.9 mph - N/A   Clear
10:51 PM 32.0 °F 27.5 °F 19.4 °F 60% 30.33 in 10.0 mi South 4.6 mph - N/A   Clear
11:11 PM 32.0 °F 26.4 °F 19.4 °F 60% 30.33 in 10.0 mi South 5.8 mph - N/A   Clear
11:31 PM 32.0 °F 25.6 °F 19.4 °F 60% 30.34 in 10.0 mi SSW 6.9 mph - N/A   Clear
11:51 PM 30.2 °F 24.3 °F 17.6 °F 60% 30.33 in 10.0 mi South 5.8 mph - N/A   Clear